sensor_id;sensor_type;location;lat;lon;timestamp;temperature;humidity
10316;DHT22;5203;48.976;8.306;2022-10-31T00:00:46;14.90;97.90
10316;DHT22;5203;48.976;8.306;2022-10-31T00:03:12;14.80;98.00
10316;DHT22;5203;48.976;8.306;2022-10-31T00:05:46;14.70;98.90
10316;DHT22;5203;48.976;8.306;2022-10-31T00:08:12;14.70;98.30
10316;DHT22;5203;48.976;8.306;2022-10-31T00:10:39;14.70;99.10
10316;DHT22;5203;48.976;8.306;2022-10-31T00:13:05;14.70;98.50
10316;DHT22;5203;48.976;8.306;2022-10-31T00:15:33;14.70;98.70
10316;DHT22;5203;48.976;8.306;2022-10-31T00:17:59;14.70;97.50
10316;DHT22;5203;48.976;8.306;2022-10-31T00:20:24;14.70;97.30
10316;DHT22;5203;48.976;8.306;2022-10-31T00:22:50;14.60;95.80
10316;DHT22;5203;48.976;8.306;2022-10-31T00:25:16;14.60;96.80
10316;DHT22;5203;48.976;8.306;2022-10-31T00:27:41;14.60;96.70
10316;DHT22;5203;48.976;8.306;2022-10-31T00:30:07;14.50;97.30
10316;DHT22;5203;48.976;8.306;2022-10-31T00:32:33;14.60;97.70
10316;DHT22;5203;48.976;8.306;2022-10-31T00:34:59;14.40;97.20
10316;DHT22;5203;48.976;8.306;2022-10-31T00:37:24;14.40;98.40
10316;DHT22;5203;48.976;8.306;2022-10-31T00:39:50;14.40;97.80
10316;DHT22;5203;48.976;8.306;2022-10-31T00:42:16;14.40;97.60
10316;DHT22;5203;48.976;8.306;2022-10-31T00:44:41;14.40;97.30
10316;DHT22;5203;48.976;8.306;2022-10-31T00:47:07;14.30;96.50
10316;DHT22;5203;48.976;8.306;2022-10-31T00:49:33;14.20;98.50
10316;DHT22;5203;48.976;8.306;2022-10-31T00:51:58;14.20;99.90
10316;DHT22;5203;48.976;8.306;2022-10-31T00:54:24;14.30;99.90
10316;DHT22;5203;48.976;8.306;2022-10-31T00:56:49;14.30;99.90
10316;DHT22;5203;48.976;8.306;2022-10-31T00:59:15;14.30;99.90
10316;DHT22;5203;48.976;8.306;2022-10-31T01:01:41;14.30;99.90
10316;DHT22;5203;48.976;8.306;2022-10-31T01:04:06;14.20;99.90
10316;DHT22;5203;48.976;8.306;2022-10-31T01:06:32;14.10;99.90
10316;DHT22;5203;48.976;8.306;2022-10-31T01:08:58;14.20;99.90
10316;DHT22;5203;48.976;8.306;2022-10-31T01:11:23;14.30;99.90
10316;DHT22;5203;48.976;8.306;2022-10-31T01:13:51;14.30;99.30
10316;DHT22;5203;48.976;8.306;2022-10-31T01:16:19;14.30;98.30
10316;DHT22;5203;48.976;8.306;2022-10-31T01:18:45;14.20;97.60
10316;DHT22;5203;48.976;8.306;2022-10-31T01:21:20;14.20;98.70
10316;DHT22;5203;48.976;8.306;2022-10-31T01:23:46;14.30;98.50
10316;DHT22;5203;48.976;8.306;2022-10-31T01:28:39;14.30;98.10
10316;DHT22;5203;48.976;8.306;2022-10-31T01:31:09;14.30;97.50
10316;DHT22;5203;48.976;8.306;2022-10-31T01:33:36;14.20;97.10
10316;DHT22;5203;48.976;8.306;2022-10-31T01:36:14;14.20;98.00
10316;DHT22;5203;48.976;8.306;2022-10-31T01:38:40;14.20;96.80
10316;DHT22;5203;48.976;8.306;2022-10-31T01:41:07;14.10;97.70
10316;DHT22;5203;48.976;8.306;2022-10-31T01:43:45;14.00;96.80
10316;DHT22;5203;48.976;8.306;2022-10-31T01:46:11;13.90;97.40
10316;DHT22;5203;48.976;8.306;2022-10-31T01:48:38;13.90;98.50
10316;DHT22;5203;48.976;8.306;2022-10-31T01:51:04;13.90;98.10
10316;DHT22;5203;48.976;8.306;2022-10-31T01:53:31;13.90;98.00
10316;DHT22;5203;48.976;8.306;2022-10-31T01:55:58;13.90;97.80
10316;DHT22;5203;48.976;8.306;2022-10-31T01:58:27;13.90;97.60
10316;DHT22;5203;48.976;8.306;2022-10-31T02:00:57;13.80;96.20
10316;DHT22;5203;48.976;8.306;2022-10-31T02:03:25;13.80;97.50
10316;DHT22;5203;48.976;8.306;2022-10-31T02:05:54;13.60;97.00
10316;DHT22;5203;48.976;8.306;2022-10-31T02:08:26;13.60;99.30
10316;DHT22;5203;48.976;8.306;2022-10-31T02:10:53;13.70;99.60
10316;DHT22;5203;48.976;8.306;2022-10-31T02:13:19;13.60;98.60
10316;DHT22;5203;48.976;8.306;2022-10-31T02:15:51;13.70;99.70
10316;DHT22;5203;48.976;8.306;2022-10-31T02:18:17;13.80;99.30
10316;DHT22;5203;48.976;8.306;2022-10-31T02:20:59;13.80;98.80
10316;DHT22;5203;48.976;8.306;2022-10-31T02:24:00;13.90;98.40
10316;DHT22;5203;48.976;8.306;2022-10-31T02:34:48;13.90;97.90
10316;DHT22;5203;48.976;8.306;2022-10-31T02:37:20;13.90;96.90
10316;DHT22;5203;48.976;8.306;2022-10-31T02:39:56;13.70;95.60
10316;DHT22;5203;48.976;8.306;2022-10-31T02:42:33;13.70;97.80
10316;DHT22;5203;48.976;8.306;2022-10-31T02:47:45;13.70;97.60
10316;DHT22;5203;48.976;8.306;2022-10-31T02:50:33;13.60;97.80
10316;DHT22;5203;48.976;8.306;2022-10-31T02:53:00;13.60;97.20
10316;DHT22;5203;48.976;8.306;2022-10-31T02:57:56;13.40;99.80
10316;DHT22;5203;48.976;8.306;2022-10-31T03:00:23;13.40;99.70
10316;DHT22;5203;48.976;8.306;2022-10-31T03:03:25;13.50;99.50
10316;DHT22;5203;48.976;8.306;2022-10-31T03:11:32;13.60;97.60
10316;DHT22;5203;48.976;8.306;2022-10-31T03:14:26;13.60;98.10
10316;DHT22;5203;48.976;8.306;2022-10-31T03:16:53;13.60;98.90
10316;DHT22;5203;48.976;8.306;2022-10-31T03:19:28;13.50;99.90
10316;DHT22;5203;48.976;8.306;2022-10-31T03:22:16;13.60;99.90
10316;DHT22;5203;48.976;8.306;2022-10-31T03:24:43;13.60;99.90
10316;DHT22;5203;48.976;8.306;2022-10-31T03:27:12;13.60;99.20
10316;DHT22;5203;48.976;8.306;2022-10-31T03:29:40;13.60;98.80
10316;DHT22;5203;48.976;8.306;2022-10-31T03:32:14;13.70;98.10
10316;DHT22;5203;48.976;8.306;2022-10-31T03:34:42;13.70;97.90
10316;DHT22;5203;48.976;8.306;2022-10-31T03:37:11;13.60;97.40
10316;DHT22;5203;48.976;8.306;2022-10-31T03:39:41;13.60;97.40
10316;DHT22;5203;48.976;8.306;2022-10-31T03:42:12;13.50;97.30
10316;DHT22;5203;48.976;8.306;2022-10-31T03:44:42;13.50;97.30
10316;DHT22;5203;48.976;8.306;2022-10-31T03:47:09;13.50;97.30
10316;DHT22;5203;48.976;8.306;2022-10-31T03:49:35;13.50;96.80
10316;DHT22;5203;48.976;8.306;2022-10-31T03:52:24;13.50;97.20
10316;DHT22;5203;48.976;8.306;2022-10-31T03:54:56;13.50;97.50
10316;DHT22;5203;48.976;8.306;2022-10-31T04:00:31;13.50;97.00
10316;DHT22;5203;48.976;8.306;2022-10-31T04:03:03;13.40;95.70
10316;DHT22;5203;48.976;8.306;2022-10-31T04:05:30;13.20;96.10
10316;DHT22;5203;48.976;8.306;2022-10-31T04:07:58;13.10;97.50
10316;DHT22;5203;48.976;8.306;2022-10-31T04:10:26;13.10;97.30
10316;DHT22;5203;48.976;8.306;2022-10-31T04:12:58;13.20;97.80
10316;DHT22;5203;48.976;8.306;2022-10-31T04:15:26;13.10;97.40
10316;DHT22;5203;48.976;8.306;2022-10-31T04:17:53;13.10;97.80
10316;DHT22;5203;48.976;8.306;2022-10-31T04:20:30;13.10;96.70
10316;DHT22;5203;48.976;8.306;2022-10-31T04:22:56;13.10;98.20
10316;DHT22;5203;48.976;8.306;2022-10-31T04:25:22;13.10;98.90
10316;DHT22;5203;48.976;8.306;2022-10-31T04:27:47;13.00;98.30
10316;DHT22;5203;48.976;8.306;2022-10-31T04:30:13;13.00;97.70
10316;DHT22;5203;48.976;8.306;2022-10-31T04:32:39;13.10;97.50
10316;DHT22;5203;48.976;8.306;2022-10-31T04:35:05;13.00;97.30
10316;DHT22;5203;48.976;8.306;2022-10-31T04:37:30;13.10;97.60
10316;DHT22;5203;48.976;8.306;2022-10-31T04:39:56;13.00;97.50
10316;DHT22;5203;48.976;8.306;2022-10-31T04:42:22;13.00;97.70
10316;DHT22;5203;48.976;8.306;2022-10-31T04:44:47;13.00;95.50
10316;DHT22;5203;48.976;8.306;2022-10-31T04:47:13;12.80;95.90
10316;DHT22;5203;48.976;8.306;2022-10-31T04:49:38;12.80;97.70
10316;DHT22;5203;48.976;8.306;2022-10-31T04:52:04;12.60;97.70
10316;DHT22;5203;48.976;8.306;2022-10-31T04:54:30;12.70;98.50
10316;DHT22;5203;48.976;8.306;2022-10-31T04:56:55;12.60;96.20
10316;DHT22;5203;48.976;8.306;2022-10-31T04:59:21;12.50;98.30
10316;DHT22;5203;48.976;8.306;2022-10-31T05:01:47;12.50;98.70
10316;DHT22;5203;48.976;8.306;2022-10-31T05:04:12;12.60;98.40
10316;DHT22;5203;48.976;8.306;2022-10-31T05:06:38;12.70;98.30
10316;DHT22;5203;48.976;8.306;2022-10-31T05:09:03;12.70;99.20
10316;DHT22;5203;48.976;8.306;2022-10-31T05:11:29;12.60;98.30
10316;DHT22;5203;48.976;8.306;2022-10-31T05:13:55;12.60;98.60
10316;DHT22;5203;48.976;8.306;2022-10-31T05:16:20;12.60;98.00
10316;DHT22;5203;48.976;8.306;2022-10-31T05:18:46;12.60;97.80
10316;DHT22;5203;48.976;8.306;2022-10-31T05:21:12;12.60;97.10
10316;DHT22;5203;48.976;8.306;2022-10-31T05:23:37;12.60;96.70
10316;DHT22;5203;48.976;8.306;2022-10-31T05:26:03;12.60;96.80
10316;DHT22;5203;48.976;8.306;2022-10-31T05:28:29;12.40;96.50
10316;DHT22;5203;48.976;8.306;2022-10-31T05:30:55;12.40;98.60
10316;DHT22;5203;48.976;8.306;2022-10-31T05:33:20;12.40;98.30
10316;DHT22;5203;48.976;8.306;2022-10-31T05:35:46;12.40;97.60
10316;DHT22;5203;48.976;8.306;2022-10-31T05:38:12;12.40;98.50
10316;DHT22;5203;48.976;8.306;2022-10-31T05:40:37;12.40;97.90
10316;DHT22;5203;48.976;8.306;2022-10-31T05:43:03;12.40;97.40
10316;DHT22;5203;48.976;8.306;2022-10-31T05:45:29;12.20;98.60
10316;DHT22;5203;48.976;8.306;2022-10-31T05:47:56;12.30;96.90
10316;DHT22;5203;48.976;8.306;2022-10-31T05:50:23;12.30;97.80
10316;DHT22;5203;48.976;8.306;2022-10-31T05:53:01;12.30;96.80
10316;DHT22;5203;48.976;8.306;2022-10-31T05:55:27;12.30;97.40
10316;DHT22;5203;48.976;8.306;2022-10-31T05:57:54;12.20;98.70
10316;DHT22;5203;48.976;8.306;2022-10-31T06:00:21;12.30;98.30
10316;DHT22;5203;48.976;8.306;2022-10-31T06:02:47;12.30;97.60
10316;DHT22;5203;48.976;8.306;2022-10-31T06:05:13;12.30;98.40
10316;DHT22;5203;48.976;8.306;2022-10-31T06:07:39;12.30;98.30
10316;DHT22;5203;48.976;8.306;2022-10-31T06:10:06;12.40;98.00
10316;DHT22;5203;48.976;8.306;2022-10-31T06:12:33;12.40;98.00
10316;DHT22;5203;48.976;8.306;2022-10-31T06:15:06;12.40;97.10
10316;DHT22;5203;48.976;8.306;2022-10-31T06:17:34;12.30;96.30
10316;DHT22;5203;48.976;8.306;2022-10-31T06:19:59;12.30;97.10
10316;DHT22;5203;48.976;8.306;2022-10-31T06:22:25;12.20;96.40
10316;DHT22;5203;48.976;8.306;2022-10-31T06:24:51;12.10;95.70
10316;DHT22;5203;48.976;8.306;2022-10-31T06:27:17;12.20;98.90
10316;DHT22;5203;48.976;8.306;2022-10-31T06:29:42;12.20;99.50
10316;DHT22;5203;48.976;8.306;2022-10-31T06:32:12;12.20;99.70
10316;DHT22;5203;48.976;8.306;2022-10-31T06:34:38;12.30;99.90
10316;DHT22;5203;48.976;8.306;2022-10-31T06:37:09;12.40;99.90
10316;DHT22;5203;48.976;8.306;2022-10-31T06:39:35;12.50;99.60
10316;DHT22;5203;48.976;8.306;2022-10-31T06:42:01;12.50;99.80
10316;DHT22;5203;48.976;8.306;2022-10-31T06:44:27;12.50;99.90
10316;DHT22;5203;48.976;8.306;2022-10-31T06:46:53;12.50;99.50
10316;DHT22;5203;48.976;8.306;2022-10-31T06:49:19;12.40;98.30
10316;DHT22;5203;48.976;8.306;2022-10-31T06:51:47;12.40;97.50
10316;DHT22;5203;48.976;8.306;2022-10-31T06:54:13;12.40;99.40
10316;DHT22;5203;48.976;8.306;2022-10-31T06:56:39;12.60;99.80
10316;DHT22;5203;48.976;8.306;2022-10-31T06:59:04;12.50;97.90
10316;DHT22;5203;48.976;8.306;2022-10-31T07:01:30;12.50;99.40
10316;DHT22;5203;48.976;8.306;2022-10-31T07:03:56;12.60;98.90
10316;DHT22;5203;48.976;8.306;2022-10-31T07:06:22;12.70;98.20
10316;DHT22;5203;48.976;8.306;2022-10-31T07:08:47;12.70;97.60
10316;DHT22;5203;48.976;8.306;2022-10-31T07:11:13;12.50;98.40
10316;DHT22;5203;48.976;8.306;2022-10-31T07:13:38;12.50;99.30
10316;DHT22;5203;48.976;8.306;2022-10-31T07:16:05;12.50;99.90
10316;DHT22;5203;48.976;8.306;2022-10-31T07:18:37;12.50;99.90
10316;DHT22;5203;48.976;8.306;2022-10-31T07:21:04;12.50;99.90
10316;DHT22;5203;48.976;8.306;2022-10-31T07:23:29;12.50;99.90
10316;DHT22;5203;48.976;8.306;2022-10-31T07:25:56;12.40;99.90
10316;DHT22;5203;48.976;8.306;2022-10-31T07:28:23;12.50;99.90
10316;DHT22;5203;48.976;8.306;2022-10-31T07:30:57;12.50;99.90
10316;DHT22;5203;48.976;8.306;2022-10-31T07:33:23;12.70;99.90
10316;DHT22;5203;48.976;8.306;2022-10-31T07:35:51;12.70;99.90
10316;DHT22;5203;48.976;8.306;2022-10-31T07:38:17;12.80;99.90
10316;DHT22;5203;48.976;8.306;2022-10-31T07:40:43;12.80;99.90
10316;DHT22;5203;48.976;8.306;2022-10-31T07:43:10;12.70;99.90
10316;DHT22;5203;48.976;8.306;2022-10-31T07:45:37;12.80;99.90
10316;DHT22;5203;48.976;8.306;2022-10-31T07:48:03;12.90;99.90
10316;DHT22;5203;48.976;8.306;2022-10-31T07:50:30;13.00;99.90
10316;DHT22;5203;48.976;8.306;2022-10-31T07:53:11;13.10;99.90
10316;DHT22;5203;48.976;8.306;2022-10-31T07:55:37;13.20;99.90
10316;DHT22;5203;48.976;8.306;2022-10-31T07:58:04;13.30;99.90
10316;DHT22;5203;48.976;8.306;2022-10-31T08:00:31;13.30;99.90
10316;DHT22;5203;48.976;8.306;2022-10-31T08:03:01;13.20;99.90
10316;DHT22;5203;48.976;8.306;2022-10-31T08:05:28;13.30;99.90
10316;DHT22;5203;48.976;8.306;2022-10-31T08:07:54;13.40;99.90
10316;DHT22;5203;48.976;8.306;2022-10-31T08:10:20;13.60;99.90
10316;DHT22;5203;48.976;8.306;2022-10-31T08:12:46;13.70;99.90
10316;DHT22;5203;48.976;8.306;2022-10-31T08:15:12;13.70;99.90
10316;DHT22;5203;48.976;8.306;2022-10-31T08:17:38;13.80;99.90
10316;DHT22;5203;48.976;8.306;2022-10-31T08:20:05;13.80;99.90
10316;DHT22;5203;48.976;8.306;2022-10-31T08:22:31;13.90;99.90
10316;DHT22;5203;48.976;8.306;2022-10-31T08:24:57;13.70;99.90
10316;DHT22;5203;48.976;8.306;2022-10-31T08:27:23;13.70;99.90
10316;DHT22;5203;48.976;8.306;2022-10-31T08:29:48;13.80;99.90
10316;DHT22;5203;48.976;8.306;2022-10-31T08:32:14;13.70;99.90
10316;DHT22;5203;48.976;8.306;2022-10-31T08:34:40;13.60;99.90
10316;DHT22;5203;48.976;8.306;2022-10-31T08:37:05;13.80;99.90
10316;DHT22;5203;48.976;8.306;2022-10-31T08:39:31;13.80;99.90
10316;DHT22;5203;48.976;8.306;2022-10-31T08:41:57;14.00;99.90
10316;DHT22;5203;48.976;8.306;2022-10-31T08:44:22;14.10;99.90
10316;DHT22;5203;48.976;8.306;2022-10-31T08:46:49;14.20;99.90
10316;DHT22;5203;48.976;8.306;2022-10-31T08:49:14;14.20;99.90
10316;DHT22;5203;48.976;8.306;2022-10-31T08:51:40;14.10;99.90
10316;DHT22;5203;48.976;8.306;2022-10-31T08:54:06;14.10;99.90
10316;DHT22;5203;48.976;8.306;2022-10-31T08:56:31;14.30;99.90
10316;DHT22;5203;48.976;8.306;2022-10-31T08:58:57;14.30;99.90
10316;DHT22;5203;48.976;8.306;2022-10-31T09:01:23;14.30;99.90
10316;DHT22;5203;48.976;8.306;2022-10-31T09:03:48;14.40;99.90
10316;DHT22;5203;48.976;8.306;2022-10-31T09:06:14;14.40;99.90
10316;DHT22;5203;48.976;8.306;2022-10-31T09:08:40;14.50;99.90
10316;DHT22;5203;48.976;8.306;2022-10-31T09:11:05;14.50;99.90
10316;DHT22;5203;48.976;8.306;2022-10-31T09:13:32;14.40;99.90
10316;DHT22;5203;48.976;8.306;2022-10-31T09:15:58;14.60;99.90
10316;DHT22;5203;48.976;8.306;2022-10-31T09:18:26;14.40;99.90
10316;DHT22;5203;48.976;8.306;2022-10-31T09:20:53;14.60;99.90
10316;DHT22;5203;48.976;8.306;2022-10-31T09:23:22;14.80;99.90
10316;DHT22;5203;48.976;8.306;2022-10-31T09:25:49;14.60;99.90
10316;DHT22;5203;48.976;8.306;2022-10-31T09:28:17;14.60;99.90
10316;DHT22;5203;48.976;8.306;2022-10-31T09:30:46;14.70;99.90
10316;DHT22;5203;48.976;8.306;2022-10-31T09:33:13;14.80;99.90
10316;DHT22;5203;48.976;8.306;2022-10-31T09:35:40;14.90;99.90
10316;DHT22;5203;48.976;8.306;2022-10-31T09:38:11;15.20;99.90
10316;DHT22;5203;48.976;8.306;2022-10-31T09:40:39;15.40;99.90
10316;DHT22;5203;48.976;8.306;2022-10-31T09:51:43;15.70;99.90
10316;DHT22;5203;48.976;8.306;2022-10-31T09:54:20;15.90;98.50
10316;DHT22;5203;48.976;8.306;2022-10-31T09:56:47;15.80;98.70
10316;DHT22;5203;48.976;8.306;2022-10-31T09:59:25;15.80;96.70
10316;DHT22;5203;48.976;8.306;2022-10-31T10:02:10;15.70;97.90
10316;DHT22;5203;48.976;8.306;2022-10-31T10:04:54;15.90;96.40
10316;DHT22;5203;48.976;8.306;2022-10-31T10:10:02;16.40;93.40
10316;DHT22;5203;48.976;8.306;2022-10-31T10:24:10;16.70;91.80
10316;DHT22;5203;48.976;8.306;2022-10-31T10:26:41;16.80;90.10
10316;DHT22;5203;48.976;8.306;2022-10-31T10:29:36;16.70;91.10
10316;DHT22;5203;48.976;8.306;2022-10-31T10:32:10;16.80;91.00
10316;DHT22;5203;48.976;8.306;2022-10-31T10:34:45;16.60;90.80
10316;DHT22;5203;48.976;8.306;2022-10-31T10:37:30;16.60;93.10
10316;DHT22;5203;48.976;8.306;2022-10-31T10:40:17;16.50;93.90
10316;DHT22;5203;48.976;8.306;2022-10-31T10:46:05;16.70;94.00
10316;DHT22;5203;48.976;8.306;2022-10-31T10:51:58;17.10;91.80
10316;DHT22;5203;48.976;8.306;2022-10-31T10:57:31;17.10;89.90
10316;DHT22;5203;48.976;8.306;2022-10-31T11:00:02;17.10;89.10
10316;DHT22;5203;48.976;8.306;2022-10-31T11:02:32;17.20;88.50
10316;DHT22;5203;48.976;8.306;2022-10-31T11:05:00;17.10;88.00
10316;DHT22;5203;48.976;8.306;2022-10-31T11:07:38;17.20;88.60
10316;DHT22;5203;48.976;8.306;2022-10-31T11:10:11;17.30;88.70
10316;DHT22;5203;48.976;8.306;2022-10-31T11:12:40;17.30;88.60
10316;DHT22;5203;48.976;8.306;2022-10-31T11:15:18;17.30;89.90
10316;DHT22;5203;48.976;8.306;2022-10-31T11:17:51;17.40;89.00
10316;DHT22;5203;48.976;8.306;2022-10-31T11:22:45;17.60;88.90
10316;DHT22;5203;48.976;8.306;2022-10-31T11:25:24;17.60;86.70
10316;DHT22;5203;48.976;8.306;2022-10-31T11:28:05;17.70;84.00
10316;DHT22;5203;48.976;8.306;2022-10-31T11:30:43;17.50;84.10
10316;DHT22;5203;48.976;8.306;2022-10-31T11:35:50;17.70;84.80
10316;DHT22;5203;48.976;8.306;2022-10-31T11:38:20;17.70;84.40
10316;DHT22;5203;48.976;8.306;2022-10-31T11:40:56;17.70;84.50
10316;DHT22;5203;48.976;8.306;2022-10-31T11:43:23;17.70;84.80
10316;DHT22;5203;48.976;8.306;2022-10-31T11:45:49;17.80;84.40
10316;DHT22;5203;48.976;8.306;2022-10-31T11:48:22;17.90;83.60
10316;DHT22;5203;48.976;8.306;2022-10-31T11:50:55;18.10;81.90
10316;DHT22;5203;48.976;8.306;2022-10-31T11:53:33;18.10;82.50
10316;DHT22;5203;48.976;8.306;2022-10-31T11:56:12;18.10;82.30
10316;DHT22;5203;48.976;8.306;2022-10-31T11:58:39;17.90;85.70
10316;DHT22;5203;48.976;8.306;2022-10-31T12:01:04;17.80;87.10
10316;DHT22;5203;48.976;8.306;2022-10-31T12:04:00;17.40;89.20
10316;DHT22;5203;48.976;8.306;2022-10-31T12:06:53;17.30;89.90
10316;DHT22;5203;48.976;8.306;2022-10-31T12:14:42;17.60;87.40
10316;DHT22;5203;48.976;8.306;2022-10-31T12:17:18;17.80;86.60
10316;DHT22;5203;48.976;8.306;2022-10-31T12:22:48;17.80;86.50
10316;DHT22;5203;48.976;8.306;2022-10-31T12:36:53;17.70;88.60
10316;DHT22;5203;48.976;8.306;2022-10-31T12:52:54;17.50;88.40
10316;DHT22;5203;48.976;8.306;2022-10-31T12:55:40;17.90;86.70
10316;DHT22;5203;48.976;8.306;2022-10-31T12:58:22;18.40;83.20
10316;DHT22;5203;48.976;8.306;2022-10-31T13:01:13;19.00;80.50
10316;DHT22;5203;48.976;8.306;2022-10-31T13:03:48;20.00;74.20
10316;DHT22;5203;48.976;8.306;2022-10-31T13:06:20;20.90;69.10
10316;DHT22;5203;48.976;8.306;2022-10-31T13:08:51;21.30;67.10
10316;DHT22;5203;48.976;8.306;2022-10-31T13:11:22;21.10;68.70
10316;DHT22;5203;48.976;8.306;2022-10-31T13:16:47;20.30;70.70
10316;DHT22;5203;48.976;8.306;2022-10-31T13:19:33;20.30;71.40
10316;DHT22;5203;48.976;8.306;2022-10-31T13:22:17;20.60;68.10
10316;DHT22;5203;48.976;8.306;2022-10-31T13:30:12;21.00;66.20
10316;DHT22;5203;48.976;8.306;2022-10-31T13:32:42;21.30;65.90
10316;DHT22;5203;48.976;8.306;2022-10-31T13:38:28;21.90;63.00
10316;DHT22;5203;48.976;8.306;2022-10-31T13:46:42;22.00;62.50
10316;DHT22;5203;48.976;8.306;2022-10-31T13:49:40;22.20;61.40
10316;DHT22;5203;48.976;8.306;2022-10-31T13:52:13;22.20;60.70
10316;DHT22;5203;48.976;8.306;2022-10-31T13:54:47;21.80;63.50
10316;DHT22;5203;48.976;8.306;2022-10-31T13:59:57;20.40;70.90
10316;DHT22;5203;48.976;8.306;2022-10-31T14:02:31;20.10;74.40
10316;DHT22;5203;48.976;8.306;2022-10-31T14:05:06;20.20;73.90
10316;DHT22;5203;48.976;8.306;2022-10-31T14:07:45;20.00;74.70
10316;DHT22;5203;48.976;8.306;2022-10-31T14:10:34;19.80;75.70
10316;DHT22;5203;48.976;8.306;2022-10-31T14:13:24;19.60;77.60
10316;DHT22;5203;48.976;8.306;2022-10-31T14:18:43;19.30;80.60
10316;DHT22;5203;48.976;8.306;2022-10-31T14:23:48;19.40;79.70
10316;DHT22;5203;48.976;8.306;2022-10-31T14:28:52;19.00;81.20
10316;DHT22;5203;48.976;8.306;2022-10-31T14:31:44;19.20;79.20
10316;DHT22;5203;48.976;8.306;2022-10-31T14:34:32;19.20;80.50
10316;DHT22;5203;48.976;8.306;2022-10-31T14:51:18;19.20;80.80
10316;DHT22;5203;48.976;8.306;2022-10-31T14:53:55;18.90;83.80
10316;DHT22;5203;48.976;8.306;2022-10-31T14:56:26;19.00;84.20
10316;DHT22;5203;48.976;8.306;2022-10-31T14:58:56;18.90;84.60
10316;DHT22;5203;48.976;8.306;2022-10-31T15:01:31;18.90;84.00
10316;DHT22;5203;48.976;8.306;2022-10-31T15:04:03;18.90;84.20
10316;DHT22;5203;48.976;8.306;2022-10-31T15:06:42;18.90;82.60
10316;DHT22;5203;48.976;8.306;2022-10-31T15:09:29;18.80;83.80
10316;DHT22;5203;48.976;8.306;2022-10-31T15:11:58;18.70;83.80
10316;DHT22;5203;48.976;8.306;2022-10-31T15:14:27;18.60;84.30
10316;DHT22;5203;48.976;8.306;2022-10-31T15:16:55;18.60;84.50
10316;DHT22;5203;48.976;8.306;2022-10-31T15:19:25;18.60;84.00
10316;DHT22;5203;48.976;8.306;2022-10-31T15:21:53;18.40;83.90
10316;DHT22;5203;48.976;8.306;2022-10-31T15:24:19;18.40;85.30
10316;DHT22;5203;48.976;8.306;2022-10-31T15:26:49;18.30;86.90
10316;DHT22;5203;48.976;8.306;2022-10-31T15:29:18;18.20;87.20
10316;DHT22;5203;48.976;8.306;2022-10-31T15:31:56;18.20;87.50
10316;DHT22;5203;48.976;8.306;2022-10-31T15:34:39;18.20;87.40
10316;DHT22;5203;48.976;8.306;2022-10-31T15:37:14;18.10;86.30
10316;DHT22;5203;48.976;8.306;2022-10-31T15:39:41;18.00;87.50
10316;DHT22;5203;48.976;8.306;2022-10-31T15:42:29;18.10;87.20
10316;DHT22;5203;48.976;8.306;2022-10-31T15:45:16;17.90;88.20
10316;DHT22;5203;48.976;8.306;2022-10-31T15:47:54;17.80;90.30
10316;DHT22;5203;48.976;8.306;2022-10-31T15:50:53;17.80;90.00
10316;DHT22;5203;48.976;8.306;2022-10-31T15:53:45;17.80;89.00
10316;DHT22;5203;48.976;8.306;2022-10-31T15:56:18;17.80;90.00
10316;DHT22;5203;48.976;8.306;2022-10-31T15:58:48;17.80;90.40
10316;DHT22;5203;48.976;8.306;2022-10-31T16:04:21;17.50;92.90
10316;DHT22;5203;48.976;8.306;2022-10-31T16:07:02;17.50;93.30
10316;DHT22;5203;48.976;8.306;2022-10-31T16:09:29;17.50;94.50
10316;DHT22;5203;48.976;8.306;2022-10-31T16:11:58;17.50;94.50
10316;DHT22;5203;48.976;8.306;2022-10-31T16:14:27;17.40;94.50
10316;DHT22;5203;48.976;8.306;2022-10-31T16:16:56;17.30;95.20
10316;DHT22;5203;48.976;8.306;2022-10-31T16:19:32;17.20;96.00
10316;DHT22;5203;48.976;8.306;2022-10-31T16:22:20;17.20;96.30
10316;DHT22;5203;48.976;8.306;2022-10-31T16:24:50;17.20;96.40
10316;DHT22;5203;48.976;8.306;2022-10-31T16:27:19;17.00;97.80
10316;DHT22;5203;48.976;8.306;2022-10-31T16:29:48;16.90;98.70
10316;DHT22;5203;48.976;8.306;2022-10-31T16:35:18;17.00;98.30
10316;DHT22;5203;48.976;8.306;2022-10-31T16:37:48;17.10;98.20
10316;DHT22;5203;48.976;8.306;2022-10-31T16:40:14;16.90;99.50
10316;DHT22;5203;48.976;8.306;2022-10-31T16:42:41;16.60;99.90
10316;DHT22;5203;48.976;8.306;2022-10-31T16:45:07;16.70;99.90
10316;DHT22;5203;48.976;8.306;2022-10-31T16:47:38;16.80;99.90
10316;DHT22;5203;48.976;8.306;2022-10-31T16:50:10;16.90;99.90
10316;DHT22;5203;48.976;8.306;2022-10-31T16:52:37;16.80;99.90
10316;DHT22;5203;48.976;8.306;2022-10-31T16:55:03;16.70;99.90
10316;DHT22;5203;48.976;8.306;2022-10-31T16:57:29;16.80;99.90
10316;DHT22;5203;48.976;8.306;2022-10-31T16:59:56;16.70;99.90
10316;DHT22;5203;48.976;8.306;2022-10-31T17:02:22;16.70;99.90
10316;DHT22;5203;48.976;8.306;2022-10-31T17:04:48;16.60;99.90
10316;DHT22;5203;48.976;8.306;2022-10-31T17:07:15;16.50;99.90
10316;DHT22;5203;48.976;8.306;2022-10-31T17:09:41;16.50;99.90
10316;DHT22;5203;48.976;8.306;2022-10-31T17:12:13;16.50;99.90
10316;DHT22;5203;48.976;8.306;2022-10-31T17:14:40;16.30;99.90
10316;DHT22;5203;48.976;8.306;2022-10-31T17:17:06;16.30;99.90
10316;DHT22;5203;48.976;8.306;2022-10-31T17:19:32;16.30;99.90
10316;DHT22;5203;48.976;8.306;2022-10-31T17:22:01;16.30;99.90
10316;DHT22;5203;48.976;8.306;2022-10-31T17:24:26;16.40;99.90
10316;DHT22;5203;48.976;8.306;2022-10-31T17:26:52;16.40;99.90
10316;DHT22;5203;48.976;8.306;2022-10-31T17:29:18;16.30;99.90
10316;DHT22;5203;48.976;8.306;2022-10-31T17:31:43;16.20;99.90
10316;DHT22;5203;48.976;8.306;2022-10-31T17:34:09;16.30;99.90
10316;DHT22;5203;48.976;8.306;2022-10-31T17:36:35;16.30;99.90
10316;DHT22;5203;48.976;8.306;2022-10-31T17:39:01;16.30;99.90
10316;DHT22;5203;48.976;8.306;2022-10-31T17:41:28;16.40;99.90
10316;DHT22;5203;48.976;8.306;2022-10-31T17:43:57;16.20;99.90
10316;DHT22;5203;48.976;8.306;2022-10-31T17:46:23;16.00;99.90
10316;DHT22;5203;48.976;8.306;2022-10-31T17:48:49;15.70;99.90
10316;DHT22;5203;48.976;8.306;2022-10-31T17:51:14;15.50;99.90
10316;DHT22;5203;48.976;8.306;2022-10-31T17:53:40;15.50;99.90
10316;DHT22;5203;48.976;8.306;2022-10-31T17:56:07;15.60;99.90
10316;DHT22;5203;48.976;8.306;2022-10-31T17:58:34;15.60;99.90
10316;DHT22;5203;48.976;8.306;2022-10-31T18:01:06;15.70;99.90
10316;DHT22;5203;48.976;8.306;2022-10-31T18:03:32;15.70;99.90
10316;DHT22;5203;48.976;8.306;2022-10-31T18:05:58;15.60;99.90
10316;DHT22;5203;48.976;8.306;2022-10-31T18:08:26;15.50;99.90
10316;DHT22;5203;48.976;8.306;2022-10-31T18:10:51;15.40;99.90
10316;DHT22;5203;48.976;8.306;2022-10-31T18:13:17;15.40;99.90
10316;DHT22;5203;48.976;8.306;2022-10-31T18:15:43;15.50;99.90
10316;DHT22;5203;48.976;8.306;2022-10-31T18:18:12;15.50;99.90
10316;DHT22;5203;48.976;8.306;2022-10-31T18:20:38;15.60;99.90
10316;DHT22;5203;48.976;8.306;2022-10-31T18:23:05;15.70;99.90
10316;DHT22;5203;48.976;8.306;2022-10-31T18:25:31;15.70;99.90